sensor_id;sensor_type;location;lat;lon;timestamp;temperature;humidity
72762;SHT30;60886;55.034;73.150;2024-03-08T00:00:31;-15.99;76.49
72762;SHT30;60886;55.034;73.150;2024-03-08T00:03:35;-15.81;76.71
72762;SHT30;60886;55.034;73.150;2024-03-08T00:06:37;-15.58;77.21
72762;SHT30;60886;55.034;73.150;2024-03-08T00:09:38;-15.41;77.64
72762;SHT30;60886;55.034;73.150;2024-03-08T00:12:44;-15.46;76.77
72762;SHT30;60886;55.034;73.150;2024-03-08T00:15:47;-15.58;76.17
72762;SHT30;60886;55.034;73.150;2024-03-08T00:18:48;-15.70;76.20
72762;SHT30;60886;55.034;73.150;2024-03-08T00:21:55;-15.81;76.65
72762;SHT30;60886;55.034;73.150;2024-03-08T00:24:56;-15.79;77.19
72762;SHT30;60886;55.034;73.150;2024-03-08T00:27:58;-15.85;77.09
72762;SHT30;60886;55.034;73.150;2024-03-08T00:31:01;-15.81;77.20
72762;SHT30;60886;55.034;73.150;2024-03-08T00:34:03;-15.78;77.89
72762;SHT30;60886;55.034;73.150;2024-03-08T00:37:04;-15.81;78.17
72762;SHT30;60886;55.034;73.150;2024-03-08T00:40:07;-15.88;77.68
72762;SHT30;60886;55.034;73.150;2024-03-08T00:43:10;-15.86;77.77
72762;SHT30;60886;55.034;73.150;2024-03-08T00:46:11;-15.86;77.52
72762;SHT30;60886;55.034;73.150;2024-03-08T00:49:13;-15.95;77.00
72762;SHT30;60886;55.034;73.150;2024-03-08T00:52:15;-15.98;76.98
72762;SHT30;60886;55.034;73.150;2024-03-08T00:55:16;-15.88;77.61
72762;SHT30;60886;55.034;73.150;2024-03-08T00:58:19;-15.72;78.88
72762;SHT30;60886;55.034;73.150;2024-03-08T01:01:20;-15.70;79.04
72762;SHT30;60886;55.034;73.150;2024-03-08T01:04:22;-15.58;79.07
72762;SHT30;60886;55.034;73.150;2024-03-08T01:07:24;-15.53;78.89
72762;SHT30;60886;55.034;73.150;2024-03-08T01:10:25;-15.47;79.43
72762;SHT30;60886;55.034;73.150;2024-03-08T01:13:28;-15.34;80.12
72762;SHT30;60886;55.034;73.150;2024-03-08T01:16:29;-15.38;80.42
72762;SHT30;60886;55.034;73.150;2024-03-08T01:19:32;-15.43;80.42
72762;SHT30;60886;55.034;73.150;2024-03-08T01:22:34;-15.34;81.06
72762;SHT30;60886;55.034;73.150;2024-03-08T01:25:36;-15.24;81.40
72762;SHT30;60886;55.034;73.150;2024-03-08T01:28:37;-15.28;81.12
72762;SHT30;60886;55.034;73.150;2024-03-08T01:31:39;-15.41;80.75
72762;SHT30;60886;55.034;73.150;2024-03-08T01:34:41;-15.48;80.85
72762;SHT30;60886;55.034;73.150;2024-03-08T01:37:43;-15.46;81.24
72762;SHT30;60886;55.034;73.150;2024-03-08T01:40:45;-15.38;81.38
72762;SHT30;60886;55.034;73.150;2024-03-08T01:43:46;-15.38;81.04
72762;SHT30;60886;55.034;73.150;2024-03-08T01:46:54;-15.41;80.61
72762;SHT30;60886;55.034;73.150;2024-03-08T01:49:56;-15.37;80.41
72762;SHT30;60886;55.034;73.150;2024-03-08T01:52:59;-15.43;79.77
72762;SHT30;60886;55.034;73.150;2024-03-08T01:56:02;-15.43;79.24
72762;SHT30;60886;55.034;73.150;2024-03-08T01:59:04;-15.34;79.35
72762;SHT30;60886;55.034;73.150;2024-03-08T02:02:08;-15.40;78.72
72762;SHT30;60886;55.034;73.150;2024-03-08T02:05:10;-15.48;78.43
72762;SHT30;60886;55.034;73.150;2024-03-08T02:08:11;-15.50;78.39
72762;SHT30;60886;55.034;73.150;2024-03-08T02:11:16;-15.57;78.01
72762;SHT30;60886;55.034;73.150;2024-03-08T02:14:18;-15.64;77.73
72762;SHT30;60886;55.034;73.150;2024-03-08T02:17:20;-15.70;77.43
72762;SHT30;60886;55.034;73.150;2024-03-08T02:20:21;-15.70;76.99
72762;SHT30;60886;55.034;73.150;2024-03-08T02:23:24;-15.65;76.98
72762;SHT30;60886;55.034;73.150;2024-03-08T02:26:26;-15.67;76.81
72762;SHT30;60886;55.034;73.150;2024-03-08T02:29:28;-15.68;76.77
72762;SHT30;60886;55.034;73.150;2024-03-08T02:32:31;-15.65;76.47
72762;SHT30;60886;55.034;73.150;2024-03-08T02:35:33;-15.61;76.36
72762;SHT30;60886;55.034;73.150;2024-03-08T02:38:35;-15.46;76.62
72762;SHT30;60886;55.034;73.150;2024-03-08T02:41:36;-15.27;76.44
72762;SHT30;60886;55.034;73.150;2024-03-08T02:44:42;-15.23;76.20
72762;SHT30;60886;55.034;73.150;2024-03-08T02:47:48;-15.16;76.26
72762;SHT30;60886;55.034;73.150;2024-03-08T02:50:54;-15.02;76.49
72762;SHT30;60886;55.034;73.150;2024-03-08T02:53:57;-14.93;76.09
72762;SHT30;60886;55.034;73.150;2024-03-08T02:57:00;-14.74;76.23
72762;SHT30;60886;55.034;73.150;2024-03-08T03:00:02;-14.67;75.74
72762;SHT30;60886;55.034;73.150;2024-03-08T03:03:12;-14.55;75.48
72762;SHT30;60886;55.034;73.150;2024-03-08T03:06:16;-14.33;75.95
72762;SHT30;60886;55.034;73.150;2024-03-08T03:09:23;-14.31;74.93
72762;SHT30;60886;55.034;73.150;2024-03-08T03:12:29;-13.99;75.86
72762;SHT30;60886;55.034;73.150;2024-03-08T03:15:32;-13.83;75.49
72762;SHT30;60886;55.034;73.150;2024-03-08T03:18:36;-13.80;74.88
72762;SHT30;60886;55.034;73.150;2024-03-08T03:21:39;-13.66;74.77
72762;SHT30;60886;55.034;73.150;2024-03-08T03:24:45;-13.73;75.19
72762;SHT30;60886;55.034;73.150;2024-03-08T03:27:54;-13.58;75.36
72762;SHT30;60886;55.034;73.150;2024-03-08T03:31:02;-13.41;75.33
72762;SHT30;60886;55.034;73.150;2024-03-08T03:34:06;-13.25;75.13
72762;SHT30;60886;55.034;73.150;2024-03-08T03:37:13;-13.08;74.60
72762;SHT30;60886;55.034;73.150;2024-03-08T03:40:17;-13.10;74.15
72762;SHT30;60886;55.034;73.150;2024-03-08T03:43:23;-12.87;74.29
72762;SHT30;60886;55.034;73.150;2024-03-08T03:46:33;-12.93;73.59
72762;SHT30;60886;55.034;73.150;2024-03-08T03:49:42;-12.86;74.90
72762;SHT30;60886;55.034;73.150;2024-03-08T03:52:46;-12.65;74.51
72762;SHT30;60886;55.034;73.150;2024-03-08T03:55:54;-12.45;74.51
72762;SHT30;60886;55.034;73.150;2024-03-08T03:58:58;-12.55;73.98
72762;SHT30;60886;55.034;73.150;2024-03-08T04:02:01;-12.49;74.32
72762;SHT30;60886;55.034;73.150;2024-03-08T04:05:07;-12.22;74.76
72762;SHT30;60886;55.034;73.150;2024-03-08T04:08:11;-11.91;74.26
72762;SHT30;60886;55.034;73.150;2024-03-08T04:11:19;-11.87;73.39
72762;SHT30;60886;55.034;73.150;2024-03-08T04:14:24;-11.60;73.19
72762;SHT30;60886;55.034;73.150;2024-03-08T04:17:28;-11.59;72.29
72762;SHT30;60886;55.034;73.150;2024-03-08T04:20:32;-11.23;72.59
72762;SHT30;60886;55.034;73.150;2024-03-08T04:23:35;-11.19;71.62
72762;SHT30;60886;55.034;73.150;2024-03-08T04:26:38;-11.04;71.52
72762;SHT30;60886;55.034;73.150;2024-03-08T04:29:41;-10.88;71.49
72762;SHT30;60886;55.034;73.150;2024-03-08T04:32:46;-10.88;70.80
72762;SHT30;60886;55.034;73.150;2024-03-08T04:35:51;-10.79;70.52
72762;SHT30;60886;55.034;73.150;2024-03-08T04:38:55;-10.82;70.38
72762;SHT30;60886;55.034;73.150;2024-03-08T04:42:02;-10.69;70.46
72762;SHT30;60886;55.034;73.150;2024-03-08T04:45:12;-10.68;69.85
72762;SHT30;60886;55.034;73.150;2024-03-08T04:48:16;-10.53;69.96
72762;SHT30;60886;55.034;73.150;2024-03-08T04:51:20;-10.53;69.53
72762;SHT30;60886;55.034;73.150;2024-03-08T04:54:26;-10.45;69.33
72762;SHT30;60886;55.034;73.150;2024-03-08T04:57:30;-10.43;68.99
72762;SHT30;60886;55.034;73.150;2024-03-08T05:00:35;-10.23;69.54
72762;SHT30;60886;55.034;73.150;2024-03-08T05:03:39;-10.36;68.89
72762;SHT30;60886;55.034;73.150;2024-03-08T05:06:42;-10.05;69.46
72762;SHT30;60886;55.034;73.150;2024-03-08T05:09:45;-9.93;68.62
72762;SHT30;60886;55.034;73.150;2024-03-08T05:12:53;-9.66;69.30
72762;SHT30;60886;55.034;73.150;2024-03-08T05:15:56;-9.45;68.39
72762;SHT30;60886;55.034;73.150;2024-03-08T05:19:01;-9.17;68.97
72762;SHT30;60886;55.034;73.150;2024-03-08T05:22:04;-9.11;68.00
72762;SHT30;60886;55.034;73.150;2024-03-08T05:25:07;-8.93;68.39
72762;SHT30;60886;55.034;73.150;2024-03-08T05:28:13;-9.04;68.10
72762;SHT30;60886;55.034;73.150;2024-03-08T05:31:22;-9.03;67.73
72762;SHT30;60886;55.034;73.150;2024-03-08T05:34:27;-9.01;68.51
72762;SHT30;60886;55.034;73.150;2024-03-08T05:37:31;-9.41;68.35
72762;SHT30;60886;55.034;73.150;2024-03-08T05:40:34;-9.36;69.80
72762;SHT30;60886;55.034;73.150;2024-03-08T05:43:37;-9.49;69.59
72762;SHT30;60886;55.034;73.150;2024-03-08T05:46:41;-9.41;69.65
72762;SHT30;60886;55.034;73.150;2024-03-08T05:49:46;-9.28;69.83
72762;SHT30;60886;55.034;73.150;2024-03-08T05:52:49;-9.44;69.52
72762;SHT30;60886;55.034;73.150;2024-03-08T05:55:52;-9.49;69.59
72762;SHT30;60886;55.034;73.150;2024-03-08T05:58:57;-9.42;70.55
72762;SHT30;60886;55.034;73.150;2024-03-08T06:02:02;-9.42;69.75
72762;SHT30;60886;55.034;73.150;2024-03-08T06:05:12;-9.39;69.88
72762;SHT30;60886;55.034;73.150;2024-03-08T06:08:17;-9.31;70.10
72762;SHT30;60886;55.034;73.150;2024-03-08T06:11:21;-9.49;70.11
72762;SHT30;60886;55.034;73.150;2024-03-08T06:14:25;-9.27;70.30
72762;SHT30;60886;55.034;73.150;2024-03-08T06:17:28;-9.11;70.05
72762;SHT30;60886;55.034;73.150;2024-03-08T06:20:31;-9.13;69.67
72762;SHT30;60886;55.034;73.150;2024-03-08T06:23:35;-9.31;69.11
72762;SHT30;60886;55.034;73.150;2024-03-08T06:26:43;-9.38;70.13
72762;SHT30;60886;55.034;73.150;2024-03-08T06:29:47;-9.36;70.42
72762;SHT30;60886;55.034;73.150;2024-03-08T06:32:53;-9.32;70.49
72762;SHT30;60886;55.034;73.150;2024-03-08T06:35:56;-9.27;70.76
72762;SHT30;60886;55.034;73.150;2024-03-08T06:39:01;-9.31;70.53
72762;SHT30;60886;55.034;73.150;2024-03-08T06:42:11;-9.20;70.95
72762;SHT30;60886;55.034;73.150;2024-03-08T06:45:17;-9.24;71.16
72762;SHT30;60886;55.034;73.150;2024-03-08T06:48:24;-9.11;70.67
72762;SHT30;60886;55.034;73.150;2024-03-08T06:51:28;-9.11;70.88
72762;SHT30;60886;55.034;73.150;2024-03-08T06:54:30;-8.97;70.49
72762;SHT30;60886;55.034;73.150;2024-03-08T06:57:34;-8.79;70.18
72762;SHT30;60886;55.034;73.150;2024-03-08T07:00:37;-8.89;69.57
72762;SHT30;60886;55.034;73.150;2024-03-08T07:03:43;-8.84;70.52
72762;SHT30;60886;55.034;73.150;2024-03-08T07:06:58;-8.89;70.06
72762;SHT30;60886;55.034;73.150;2024-03-08T07:10:02;-8.74;70.49
72762;SHT30;60886;55.034;73.150;2024-03-08T07:13:06;-8.61;70.92
72762;SHT30;60886;55.034;73.150;2024-03-08T07:16:09;-8.74;70.56
72762;SHT30;60886;55.034;73.150;2024-03-08T07:19:16;-8.59;71.08
72762;SHT30;60886;55.034;73.150;2024-03-08T07:22:21;-8.54;70.57
72762;SHT30;60886;55.034;73.150;2024-03-08T07:25:27;-8.52;70.48
72762;SHT30;60886;55.034;73.150;2024-03-08T07:28:32;-8.40;70.96
72762;SHT30;60886;55.034;73.150;2024-03-08T07:31:37;-8.32;70.59
72762;SHT30;60886;55.034;73.150;2024-03-08T07:34:40;-8.21;70.48
72762;SHT30;60886;55.034;73.150;2024-03-08T07:37:43;-8.33;69.65
72762;SHT30;60886;55.034;73.150;2024-03-08T07:40:48;-8.64;70.90
72762;SHT30;60886;55.034;73.150;2024-03-08T07:43:54;-8.57;71.24
72762;SHT30;60886;55.034;73.150;2024-03-08T07:47:00;-8.73;71.40
72762;SHT30;60886;55.034;73.150;2024-03-08T07:50:06;-8.52;71.51
72762;SHT30;60886;55.034;73.150;2024-03-08T07:53:14;-8.48;71.04
72762;SHT30;60886;55.034;73.150;2024-03-08T07:56:21;-8.39;71.75
72762;SHT30;60886;55.034;73.150;2024-03-08T07:59:24;-8.32;70.91
72762;SHT30;60886;55.034;73.150;2024-03-08T08:02:32;-8.40;70.60
72762;SHT30;60886;55.034;73.150;2024-03-08T08:05:40;-8.35;71.49
72762;SHT30;60886;55.034;73.150;2024-03-08T08:08:47;-8.25;71.12
72762;SHT30;60886;55.034;73.150;2024-03-08T08:11:55;-8.32;71.30
72762;SHT30;60886;55.034;73.150;2024-03-08T08:15:00;-8.22;71.11
72762;SHT30;60886;55.034;73.150;2024-03-08T08:18:03;-8.18;71.21
72762;SHT30;60886;55.034;73.150;2024-03-08T08:21:08;-8.15;71.09
72762;SHT30;60886;55.034;73.150;2024-03-08T08:24:14;-8.11;71.48
72762;SHT30;60886;55.034;73.150;2024-03-08T08:27:22;-8.05;71.23
72762;SHT30;60886;55.034;73.150;2024-03-08T08:30:25;-8.05;71.16
72762;SHT30;60886;55.034;73.150;2024-03-08T08:33:27;-7.93;71.00
72762;SHT30;60886;55.034;73.150;2024-03-08T08:36:31;-7.95;70.75
72762;SHT30;60886;55.034;73.150;2024-03-08T08:39:34;-8.08;70.70
72762;SHT30;60886;55.034;73.150;2024-03-08T08:42:36;-8.12;70.70
72762;SHT30;60886;55.034;73.150;2024-03-08T08:45:40;-8.01;71.04
72762;SHT30;60886;55.034;73.150;2024-03-08T08:48:44;-8.02;70.71
72762;SHT30;60886;55.034;73.150;2024-03-08T08:51:58;-8.05;71.02
72762;SHT30;60886;55.034;73.150;2024-03-08T08:55:02;-8.11;70.98
72762;SHT30;60886;55.034;73.150;2024-03-08T08:58:06;-8.11;71.18
72762;SHT30;60886;55.034;73.150;2024-03-08T09:01:10;-8.14;71.29
72762;SHT30;60886;55.034;73.150;2024-03-08T09:04:14;-8.29;71.39
72762;SHT30;60886;55.034;73.150;2024-03-08T09:07:17;-8.29;71.54
72762;SHT30;60886;55.034;73.150;2024-03-08T09:10:22;-8.21;71.89
72762;SHT30;60886;55.034;73.150;2024-03-08T09:13:25;-8.14;71.83
72762;SHT30;60886;55.034;73.150;2024-03-08T09:16:29;-8.21;71.64
72762;SHT30;60886;55.034;73.150;2024-03-08T09:19:33;-8.12;72.28
72762;SHT30;60886;55.034;73.150;2024-03-08T09:22:36;-8.06;71.81
72762;SHT30;60886;55.034;73.150;2024-03-08T09:25:39;-8.01;71.61
72762;SHT30;60886;55.034;73.150;2024-03-08T09:28:44;-7.98;71.87
72762;SHT30;60886;55.034;73.150;2024-03-08T09:31:54;-8.05;71.62
72762;SHT30;60886;55.034;73.150;2024-03-08T09:34:58;-8.05;71.98
72762;SHT30;60886;55.034;73.150;2024-03-08T09:38:05;-7.94;71.79
72762;SHT30;60886;55.034;73.150;2024-03-08T09:41:08;-7.93;71.99
72762;SHT30;60886;55.034;73.150;2024-03-08T09:44:12;-7.93;71.89
72762;SHT30;60886;55.034;73.150;2024-03-08T09:47:17;-7.94;71.69
72762;SHT30;60886;55.034;73.150;2024-03-08T09:50:22;-7.90;71.61
72762;SHT30;60886;55.034;73.150;2024-03-08T09:53:25;-7.74;71.44
72762;SHT30;60886;55.034;73.150;2024-03-08T09:56:29;-7.80;70.98
72762;SHT30;60886;55.034;73.150;2024-03-08T09:59:33;-7.80;70.61
72762;SHT30;60886;55.034;73.150;2024-03-08T10:02:39;-7.84;70.57
72762;SHT30;60886;55.034;73.150;2024-03-08T10:05:42;-7.80;70.70
72762;SHT30;60886;55.034;73.150;2024-03-08T10:08:48;-7.77;70.77
72762;SHT30;60886;55.034;73.150;2024-03-08T10:11:57;-7.83;70.50
72762;SHT30;60886;55.034;73.150;2024-03-08T10:15:00;-7.74;70.91
72762;SHT30;60886;55.034;73.150;2024-03-08T10:18:06;-7.71;70.17
72762;SHT30;60886;55.034;73.150;2024-03-08T10:21:09;-7.88;70.11
72762;SHT30;60886;55.034;73.150;2024-03-08T10:24:12;-7.84;70.48
72762;SHT30;60886;55.034;73.150;2024-03-08T10:27:17;-7.81;70.19
72762;SHT30;60886;55.034;73.150;2024-03-08T10:30:21;-7.77;69.84
72762;SHT30;60886;55.034;73.150;2024-03-08T10:33:26;-7.75;69.83
72762;SHT30;60886;55.034;73.150;2024-03-08T10:36:30;-7.75;69.43
72762;SHT30;60886;55.034;73.150;2024-03-08T10:39:35;-7.69;69.21
72762;SHT30;60886;55.034;73.150;2024-03-08T10:42:51;-7.83;69.38
72762;SHT30;60886;55.034;73.150;2024-03-08T10:46:27;-7.78;69.66
72762;SHT30;60886;55.034;73.150;2024-03-08T10:49:32;-7.78;69.73
72762;SHT30;60886;55.034;73.150;2024-03-08T10:52:37;-7.80;69.22
72762;SHT30;60886;55.034;73.150;2024-03-08T10:55:42;-7.80;69.52
72762;SHT30;60886;55.034;73.150;2024-03-08T10:58:47;-7.81;69.12
72762;SHT30;60886;55.034;73.150;2024-03-08T11:01:55;-7.74;68.95
72762;SHT30;60886;55.034;73.150;2024-03-08T11:04:58;-7.71;68.75
72762;SHT30;60886;55.034;73.150;2024-03-08T11:08:02;-7.78;68.14
72762;SHT30;60886;55.034;73.150;2024-03-08T11:11:05;-7.80;68.85
72762;SHT30;60886;55.034;73.150;2024-03-08T11:14:42;-7.73;68.85
72762;SHT30;60886;55.034;73.150;2024-03-08T11:17:49;-7.63;68.52
72762;SHT30;60886;55.034;73.150;2024-03-08T11:20:56;-7.60;68.40
72762;SHT30;60886;55.034;73.150;2024-03-08T11:27:03;-7.54;68.33
72762;SHT30;60886;55.034;73.150;2024-03-08T11:30:08;-7.43;68.52
72762;SHT30;60886;55.034;73.150;2024-03-08T11:33:18;-7.48;68.14
72762;SHT30;60886;55.034;73.150;2024-03-08T11:36:23;-7.51;68.39
72762;SHT30;60886;55.034;73.150;2024-03-08T11:39:27;-7.60;68.20
72762;SHT30;60886;55.034;73.150;2024-03-08T11:42:31;-7.73;68.40
72762;SHT30;60886;55.034;73.150;2024-03-08T11:45:35;-7.81;68.75
72762;SHT30;60886;55.034;73.150;2024-03-08T11:48:47;-8.05;68.50
72762;SHT30;60886;55.034;73.150;2024-03-08T11:51:54;-8.33;69.08
72762;SHT30;60886;55.034;73.150;2024-03-08T11:54:58;-8.63;69.64
72762;SHT30;60886;55.034;73.150;2024-03-08T11:58:03;-8.77;70.14
72762;SHT30;60886;55.034;73.150;2024-03-08T12:01:09;-8.96;70.67
72762;SHT30;60886;55.034;73.150;2024-03-08T12:04:18;-9.00;70.99
72762;SHT30;60886;55.034;73.150;2024-03-08T12:07:22;-9.00;71.22
72762;SHT30;60886;55.034;73.150;2024-03-08T12:10:26;-9.03;71.15
72762;SHT30;60886;55.034;73.150;2024-03-08T12:13:33;-9.25;71.04
72762;SHT30;60886;55.034;73.150;2024-03-08T12:16:57;-9.41;71.74
72762;SHT30;60886;55.034;73.150;2024-03-08T12:20:22;-9.51;72.34
72762;SHT30;60886;55.034;73.150;2024-03-08T12:23:25;-9.70;72.18
72762;SHT30;60886;55.034;73.150;2024-03-08T12:26:30;-9.75;72.92
72762;SHT30;60886;55.034;73.150;2024-03-08T12:29:38;-9.85;72.92
72762;SHT30;60886;55.034;73.150;2024-03-08T12:32:55;-9.99;73.40
72762;SHT30;60886;55.034;73.150;2024-03-08T12:36:15;-10.14;73.68
72762;SHT30;60886;55.034;73.150;2024-03-08T12:39:19;-10.14;74.15
72762;SHT30;60886;55.034;73.150;2024-03-08T12:42:30;-10.30;73.88
72762;SHT30;60886;55.034;73.150;2024-03-08T12:45:34;-10.34;74.23
72762;SHT30;60886;55.034;73.150;2024-03-08T12:48:43;-10.50;74.02
72762;SHT30;60886;55.034;73.150;2024-03-08T12:51:54;-10.64;74.42
72762;SHT30;60886;55.034;73.150;2024-03-08T12:55:12;-10.71;74.92
72762;SHT30;60886;55.034;73.150;2024-03-08T12:58:23;-10.89;74.83
72762;SHT30;60886;55.034;73.150;2024-03-08T13:01:30;-11.02;75.18
72762;SHT30;60886;55.034;73.150;2024-03-08T13:04:50;-11.12;75.65
72762;SHT30;60886;55.034;73.150;2024-03-08T13:08:00;-11.06;75.89
72762;SHT30;60886;55.034;73.150;2024-03-08T13:11:10;-11.16;75.70
72762;SHT30;60886;55.034;73.150;2024-03-08T13:14:21;-11.25;75.71
72762;SHT30;60886;55.034;73.150;2024-03-08T13:17:23;-11.30;76.28
72762;SHT30;60886;55.034;73.150;2024-03-08T13:20:27;-11.25;76.43
72762;SHT30;60886;55.034;73.150;2024-03-08T13:23:30;-11.37;76.04
72762;SHT30;60886;55.034;73.150;2024-03-08T13:26:44;-11.53;75.97
72762;SHT30;60886;55.034;73.150;2024-03-08T13:29:51;-11.66;76.22
72762;SHT30;60886;55.034;73.150;2024-03-08T13:33:00;-11.77;76.58
72762;SHT30;60886;55.034;73.150;2024-03-08T13:36:09;-11.82;76.78
72762;SHT30;60886;55.034;73.150;2024-03-08T13:39:25;-11.95;76.93
72762;SHT30;60886;55.034;73.150;2024-03-08T13:42:32;-12.02;77.03
72762;SHT30;60886;55.034;73.150;2024-03-08T13:45:37;-12.12;77.23
72762;SHT30;60886;55.034;73.150;2024-03-08T13:48:44;-12.18;77.56
72762;SHT30;60886;55.034;73.150;2024-03-08T13:51:54;-12.26;77.58
72762;SHT30;60886;55.034;73.150;2024-03-08T13:54:59;-12.38;77.69
72762;SHT30;60886;55.034;73.150;2024-03-08T13:58:04;-12.42;77.95
72762;SHT30;60886;55.034;73.150;2024-03-08T14:01:11;-12.48;77.97
72762;SHT30;60886;55.034;73.150;2024-03-08T14:04:18;-12.48;78.11
72762;SHT30;60886;55.034;73.150;2024-03-08T14:07:23;-12.50;78.20
72762;SHT30;60886;55.034;73.150;2024-03-08T14:10:26;-12.52;78.29
72762;SHT30;60886;55.034;73.150;2024-03-08T14:13:31;-12.55;78.15
72762;SHT30;60886;55.034;73.150;2024-03-08T14:16:35;-12.53;78.30
72762;SHT30;60886;55.034;73.150;2024-03-08T14:19:39;-12.55;78.12
72762;SHT30;60886;55.034;73.150;2024-03-08T14:22:42;-12.63;78.00
72762;SHT30;60886;55.034;73.150;2024-03-08T14:25:45;-12.65;78.15
72762;SHT30;60886;55.034;73.150;2024-03-08T14:28:48;-12.75;78.05
72762;SHT30;60886;55.034;73.150;2024-03-08T14:31:56;-12.81;78.36
72762;SHT30;60886;55.034;73.150;2024-03-08T14:35:03;-12.86;78.45
72762;SHT30;60886;55.034;73.150;2024-03-08T14:38:07;-12.84;78.56
72762;SHT30;60886;55.034;73.150;2024-03-08T14:41:11;-12.94;78.40
72762;SHT30;60886;55.034;73.150;2024-03-08T14:44:14;-13.04;78.47
72762;SHT30;60886;55.034;73.150;2024-03-08T14:47:18;-13.01;78.89
72762;SHT30;60886;55.034;73.150;2024-03-08T14:50:24;-13.00;78.95
72762;SHT30;60886;55.034;73.150;2024-03-08T14:53:30;-13.14;78.67
72762;SHT30;60886;55.034;73.150;2024-03-08T14:56:33;-13.11;79.22
72762;SHT30;60886;55.034;73.150;2024-03-08T14:59:38;-13.11;79.14
72762;SHT30;60886;55.034;73.150;2024-03-08T15:02:43;-13.15;78.79
72762;SHT30;60886;55.034;73.150;2024-03-08T15:05:49;-13.21;78.80
72762;SHT30;60886;55.034;73.150;2024-03-08T15:08:52;-13.28;78.85
72762;SHT30;60886;55.034;73.150;2024-03-08T15:11:58;-13.30;79.06
72762;SHT30;60886;55.034;73.150;2024-03-08T15:15:02;-13.31;79.05
72762;SHT30;60886;55.034;73.150;2024-03-08T15:18:11;-13.38;78.99
72762;SHT30;60886;55.034;73.150;2024-03-08T15:21:21;-13.45;79.09
72762;SHT30;60886;55.034;73.150;2024-03-08T15:24:29;-13.45;79.20
72762;SHT30;60886;55.034;73.150;2024-03-08T15:27:34;-13.51;79.00
72762;SHT30;60886;55.034;73.150;2024-03-08T15:30:41;-13.61;79.03
72762;SHT30;60886;55.034;73.150;2024-03-08T15:33:50;-13.59;79.37
72762;SHT30;60886;55.034;73.150;2024-03-08T15:37:03;-13.63;79.26
72762;SHT30;60886;55.034;73.150;2024-03-08T15:40:09;-13.65;79.32
72762;SHT30;60886;55.034;73.150;2024-03-08T15:43:13;-13.61;79.49
72762;SHT30;60886;55.034;73.150;2024-03-08T15:46:17;-13.66;79.18
72762;SHT30;60886;55.034;73.150;2024-03-08T15:49:24;-13.69;79.11
72762;SHT30;60886;55.034;73.150;2024-03-08T15:52:28;-13.67;79.19
72762;SHT30;60886;55.034;73.150;2024-03-08T15:55:31;-13.79;79.03
72762;SHT30;60886;55.034;73.150;2024-03-08T15:58:35;-13.83;79.30
72762;SHT30;60886;55.034;73.150;2024-03-08T16:01:39;-13.87;79.42
72762;SHT30;60886;55.034;73.150;2024-03-08T16:04:42;-13.89;79.59
72762;SHT30;60886;55.034;73.150;2024-03-08T16:07:48;-13.96;79.51
72762;SHT30;60886;55.034;73.150;2024-03-08T16:10:52;-14.05;79.63
72762;SHT30;60886;55.034;73.150;2024-03-08T16:13:59;-14.09;79.69
72762;SHT30;60886;55.034;73.150;2024-03-08T16:17:04;-14.14;79.92
72762;SHT30;60886;55.034;73.150;2024-03-08T16:20:09;-14.20;79.88
72762;SHT30;60886;55.034;73.150;2024-03-08T16:23:18;-14.21;80.05
72762;SHT30;60886;55.034;73.150;2024-03-08T16:26:21;-14.20;80.04
72762;SHT30;60886;55.034;73.150;2024-03-08T16:29:28;-14.23;79.96
72762;SHT30;60886;55.034;73.150;2024-03-08T16:32:31;-14.26;79.73
72762;SHT30;60886;55.034;73.150;2024-03-08T16:35:35;-14.28;79.72
72762;SHT30;60886;55.034;73.150;2024-03-08T16:38:45;-14.31;79.85
72762;SHT30;60886;55.034;73.150;2024-03-08T16:41:54;-14.20;80.10
72762;SHT30;60886;55.034;73.150;2024-03-08T16:44:59;-14.24;79.53
72762;SHT30;60886;55.034;73.150;2024-03-08T16:48:05;-14.26;79.69
72762;SHT30;60886;55.034;73.150;2024-03-08T16:51:11;-14.30;79.54
72762;SHT30;60886;55.034;73.150;2024-03-08T16:54:16;-14.34;79.50
72762;SHT30;60886;55.034;73.150;2024-03-08T16:57:22;-14.34;79.67
72762;SHT30;60886;55.034;73.150;2024-03-08T17:00:30;-14.33;79.73
72762;SHT30;60886;55.034;73.150;2024-03-08T17:03:37;-14.34;79.54
72762;SHT30;60886;55.034;73.150;2024-03-08T17:06:40;-14.42;79.45
72762;SHT30;60886;55.034;73.150;2024-03-08T17:09:44;-14.55;79.33
72762;SHT30;60886;55.034;73.150;2024-03-08T17:12:48;-14.60;79.55
72762;SHT30;60886;55.034;73.150;2024-03-08T17:15:54;-14.67;79.83
72762;SHT30;60886;55.034;73.150;2024-03-08T17:18:58;-14.71;80.02
72762;SHT30;60886;55.034;73.150;2024-03-08T17:22:09;-14.79;80.08
72762;SHT30;60886;55.034;73.150;2024-03-08T17:25:14;-14.81;80.41
72762;SHT30;60886;55.034;73.150;2024-03-08T17:28:27;-14.89;80.38
72762;SHT30;60886;55.034;73.150;2024-03-08T17:31:32;-14.91;80.55
72762;SHT30;60886;55.034;73.150;2024-03-08T17:34:39;-14.97;80.45
72762;SHT30;60886;55.034;73.150;2024-03-08T17:37:42;-14.99;80.51
72762;SHT30;60886;55.034;73.150;2024-03-08T17:40:49;-15.06;80.46
72762;SHT30;60886;55.034;73.150;2024-03-08T17:43:53;-15.13;80.50
72762;SHT30;60886;55.034;73.150;2024-03-08T17:46:56;-15.10;80.73
72762;SHT30;60886;55.034;73.150;2024-03-08T17:50:01;-15.15;80.72
72762;SHT30;60886;55.034;73.150;2024-03-08T17:53:10;-15.16;80.76
72762;SHT30;60886;55.034;73.150;2024-03-08T17:56:17;-15.19;80.61
72762;SHT30;60886;55.034;73.150;2024-03-08T17:59:21;-15.24;80.54
72762;SHT30;60886;55.034;73.150;2024-03-08T18:02:25;-15.23;80.57
72762;SHT30;60886;55.034;73.150;2024-03-08T18:05:28;-15.16;80.69
72762;SHT30;60886;55.034;73.150;2024-03-08T18:08:39;-15.28;80.43
72762;SHT30;60886;55.034;73.150;2024-03-08T18:11:54;-15.22;80.75
72762;SHT30;60886;55.034;73.150;2024-03-08T18:14:59;-15.26;80.41
72762;SHT30;60886;55.034;73.150;2024-03-08T18:18:03;-15.27;80.42
72762;SHT30;60886;55.034;73.150;2024-03-08T18:21:25;-15.33;80.31
72762;SHT30;60886;55.034;73.150;2024-03-08T18:24:36;-15.41;80.38
72762;SHT30;60886;55.034;73.150;2024-03-08T18:27:40;-15.43;80.65
72762;SHT30;60886;55.034;73.150;2024-03-08T18:30:46;-15.48;80.65
72762;SHT30;60886;55.034;73.150;2024-03-08T18:33:52;-15.47;80.97
72762;SHT30;60886;55.034;73.150;2024-03-08T18:36:56;-15.43;81.13
72762;SHT30;60886;55.034;73.150;2024-03-08T18:40:00;-15.44;81.01
72762;SHT30;60886;55.034;73.150;2024-03-08T18:43:05;-15.46;81.26
72762;SHT30;60886;55.034;73.150;2024-03-08T18:46:08;-15.44;81.33
72762;SHT30;60886;55.034;73.150;2024-03-08T18:49:15;-15.47;81.34
72762;SHT30;60886;55.034;73.150;2024-03-08T18:52:19;-15.41;81.64
72762;SHT30;60886;55.034;73.150;2024-03-08T18:55:24;-15.40;81.57
72762;SHT30;60886;55.034;73.150;2024-03-08T18:58:31;-15.40;81.56
72762;SHT30;60886;55.034;73.150;2024-03-08T19:01:36;-15.43;81.34
72762;SHT30;60886;55.034;73.150;2024-03-08T19:04:41;-15.48;81.51